createdAt,value
2017-10-14T00:01:41.815Z,13.50
2017-10-14T00:04:09.313Z,13.50
2017-10-14T00:06:36.801Z,13.50
2017-10-14T00:09:04.390Z,13.50
2017-10-14T00:11:31.890Z,13.50
2017-10-14T00:13:59.412Z,13.50
2017-10-14T00:16:27.681Z,13.60
2017-10-14T00:18:55.212Z,13.60
2017-10-14T00:21:22.703Z,13.60
2017-10-14T00:23:50.233Z,13.60
2017-10-14T00:26:17.724Z,13.60
2017-10-14T00:28:45.289Z,13.70
2017-10-14T00:31:12.784Z,13.60
2017-10-14T00:33:40.349Z,13.60
2017-10-14T00:36:07.875Z,13.60
2017-10-14T00:38:35.381Z,13.60
2017-10-14T00:41:02.946Z,13.60
2017-10-14T00:43:30.453Z,13.60
2017-10-14T00:45:57.988Z,13.50
2017-10-14T00:48:25.493Z,13.60
2017-10-14T00:50:53.021Z,13.60
2017-10-14T00:53:20.509Z,13.50
2017-10-14T00:55:48.034Z,13.50
2017-10-14T00:58:15.904Z,13.40
2017-10-14T01:00:43.485Z,13.40
2017-10-14T01:03:11.408Z,13.40
2017-10-14T01:05:38.917Z,13.40
2017-10-14T01:08:06.462Z,13.40
2017-10-14T01:10:33.956Z,13.40
2017-10-14T01:13:01.474Z,13.40
2017-10-14T01:15:28.985Z,13.40
2017-10-14T01:17:56.780Z,13.40
2017-10-14T01:20:24.319Z,13.30
2017-10-14T01:22:51.849Z,13.40
2017-10-14T01:25:20.180Z,13.40
2017-10-14T01:27:47.721Z,13.40
2017-10-14T01:30:15.213Z,13.40
2017-10-14T01:32:42.713Z,13.30
2017-10-14T01:35:10.244Z,13.30
2017-10-14T01:37:37.755Z,13.30
2017-10-14T01:40:05.280Z,13.30
2017-10-14T01:42:33.559Z,13.30
2017-10-14T01:45:01.850Z,13.30
2017-10-14T01:47:30.105Z,13.30
2017-10-14T01:49:57.632Z,13.30
2017-10-14T01:52:25.117Z,13.30
2017-10-14T01:54:52.706Z,13.30
2017-10-14T01:57:20.222Z,13.30
2017-10-14T01:59:47.770Z,13.20
2017-10-14T02:02:15.271Z,13.20
2017-10-14T02:04:43.534Z,13.20
2017-10-14T02:07:11.290Z,13.20
2017-10-14T02:09:38.817Z,13.20
2017-10-14T02:12:07.118Z,13.10
2017-10-14T02:14:34.620Z,13.10
2017-10-14T02:17:02.951Z,13.10
2017-10-14T02:19:30.577Z,13.10
2017-10-14T02:21:58.144Z,13.10
2017-10-14T02:24:25.655Z,13.10
2017-10-14T02:26:53.205Z,13.10
2017-10-14T02:29:20.699Z,13.10
2017-10-14T02:31:48.246Z,13.20
2017-10-14T02:34:15.754Z,13.30
2017-10-14T02:36:43.251Z,13.30
2017-10-14T02:39:10.781Z,13.30
2017-10-14T02:41:38.288Z,13.30
2017-10-14T02:44:05.841Z,13.40
2017-10-14T02:46:33.370Z,13.40
2017-10-14T02:49:00.896Z,13.30
2017-10-14T02:51:29.158Z,13.20
2017-10-14T02:53:56.678Z,13.20
2017-10-14T02:56:24.303Z,13.20
2017-10-14T02:58:51.807Z,13.20
2017-10-14T03:01:20.099Z,13.10
2017-10-14T03:03:48.366Z,13.10
2017-10-14T03:06:15.920Z,13.10
2017-10-14T03:08:43.432Z,13.10
2017-10-14T03:11:11.294Z,13.10
2017-10-14T03:13:38.796Z,13.00
2017-10-14T03:16:06.293Z,13.00
2017-10-14T03:18:33.847Z,13.00
2017-10-14T03:21:01.348Z,13.00
2017-10-14T03:23:28.922Z,13.00
2017-10-14T03:25:56.423Z,12.90
2017-10-14T03:28:24.564Z,12.90
2017-10-14T03:30:53.715Z,12.80
2017-10-14T03:33:21.256Z,12.80
2017-10-14T03:35:48.761Z,12.80
2017-10-14T03:38:16.322Z,12.80
2017-10-14T03:40:43.826Z,12.80
2017-10-14T03:43:11.338Z,12.80
2017-10-14T03:45:38.869Z,12.80
2017-10-14T03:48:06.383Z,12.70
2017-10-14T03:50:33.919Z,12.70
2017-10-14T03:53:01.422Z,12.70
2017-10-14T03:55:28.958Z,12.70
2017-10-14T03:57:56.470Z,12.60
2017-10-14T04:00:24.058Z,12.60
2017-10-14T04:02:51.557Z,12.60
2017-10-14T04:05:19.252Z,12.60
2017-10-14T04:07:47.553Z,12.60
2017-10-14T04:10:15.062Z,12.60
2017-10-14T04:12:42.595Z,12.60
2017-10-14T04:15:10.101Z,12.50
2017-10-14T04:17:37.638Z,12.50
2017-10-14T04:20:05.142Z,12.50
2017-10-14T04:22:32.683Z,12.50
2017-10-14T04:25:00.199Z,12.50
2017-10-14T04:27:27.738Z,12.50
2017-10-14T04:29:55.262Z,12.50
2017-10-14T04:32:22.897Z,12.40
2017-10-14T04:34:50.409Z,12.40
2017-10-14T04:37:17.906Z,12.40
2017-10-14T04:39:45.446Z,12.40
2017-10-14T04:42:12.960Z,12.40
2017-10-14T04:44:40.499Z,12.40
2017-10-14T04:47:08.783Z,12.40
2017-10-14T04:49:36.330Z,12.40
2017-10-14T04:52:03.836Z,12.40
2017-10-14T04:54:32.162Z,12.30
2017-10-14T04:56:59.703Z,12.30
2017-10-14T04:59:28.034Z,12.30
2017-10-14T05:01:55.533Z,12.30
2017-10-14T05:04:23.030Z,12.30
2017-10-14T05:06:50.612Z,12.20
2017-10-14T05:09:18.156Z,12.20
2017-10-14T05:11:45.685Z,12.20
2017-10-14T05:14:13.210Z,12.20
2017-10-14T05:16:40.751Z,12.10
2017-10-14T05:19:08.291Z,12.20
2017-10-14T05:21:35.849Z,12.20
2017-10-14T05:24:03.353Z,12.20
2017-10-14T05:26:30.911Z,12.10
2017-10-14T05:28:58.430Z,12.10
2017-10-14T05:31:25.947Z,12.10
2017-10-14T05:33:53.514Z,12.10
2017-10-14T05:36:21.061Z,12.10
2017-10-14T05:38:48.647Z,12.10
2017-10-14T05:41:16.175Z,12.10
2017-10-14T05:43:44.107Z,12.00
2017-10-14T05:46:11.644Z,12.10
2017-10-14T05:48:39.277Z,12.10
2017-10-14T05:51:06.782Z,12.10
2017-10-14T05:53:34.345Z,12.10
2017-10-14T05:56:01.851Z,12.20
2017-10-14T05:58:30.126Z,12.30
2017-10-14T06:00:57.780Z,12.30
2017-10-14T06:03:25.304Z,12.30
2017-10-14T06:05:53.601Z,12.30
2017-10-14T06:08:21.109Z,12.20
2017-10-14T06:10:48.646Z,12.30
2017-10-14T06:13:16.174Z,12.40
2017-10-14T06:15:43.716Z,12.40
2017-10-14T06:18:11.224Z,12.40
2017-10-14T06:20:38.785Z,12.40
2017-10-14T06:23:06.290Z,12.50
2017-10-14T06:25:34.558Z,12.60
2017-10-14T06:28:02.089Z,12.60
2017-10-14T06:30:29.606Z,12.60
2017-10-14T06:32:57.148Z,12.70
2017-10-14T06:35:24.645Z,12.80
2017-10-14T06:37:52.182Z,12.90
2017-10-14T06:40:19.688Z,13.00
2017-10-14T06:42:47.281Z,13.20
2017-10-14T06:45:15.553Z,16.10
2017-10-14T06:47:43.085Z,16.10
2017-10-14T06:50:10.585Z,17.70
2017-10-14T06:52:38.141Z,19.20
2017-10-14T06:55:05.634Z,19.90
2017-10-14T06:57:33.151Z,20.30
2017-10-14T07:00:00.681Z,21.10
2017-10-14T07:02:29.201Z,22.50
2017-10-14T07:04:56.731Z,22.50
2017-10-14T07:07:24.239Z,23.20
2017-10-14T07:09:51.764Z,23.50
2017-10-14T07:12:19.279Z,23.90
2017-10-14T07:14:47.584Z,24.00
2017-10-14T07:17:15.115Z,23.90
2017-10-14T07:19:42.655Z,24.80
2017-10-14T07:22:10.145Z,24.70
2017-10-14T07:24:37.693Z,24.90
2017-10-14T07:27:05.201Z,25.50
2017-10-14T07:29:32.702Z,25.70
2017-10-14T07:32:00.225Z,26.20
2017-10-14T07:34:27.725Z,26.40
2017-10-14T07:36:55.249Z,27.20
2017-10-14T07:39:22.751Z,27.20
2017-10-14T07:41:50.301Z,27.60
2017-10-14T07:44:17.807Z,27.30
2017-10-14T07:46:45.346Z,27.70
2017-10-14T07:49:12.834Z,28.10
2017-10-14T07:51:40.333Z,27.70
2017-10-14T07:54:07.863Z,27.50
2017-10-14T07:56:35.370Z,27.50
2017-10-14T07:59:02.917Z,27.10
2017-10-14T08:01:30.531Z,27.20
2017-10-14T08:03:58.115Z,27.30
2017-10-14T08:06:25.614Z,27.20
2017-10-14T08:08:53.150Z,27.50
2017-10-14T08:11:21.450Z,27.30
2017-10-14T08:13:48.956Z,27.40
2017-10-14T08:16:16.488Z,28.00
2017-10-14T08:18:43.994Z,27.80
2017-10-14T08:21:11.522Z,27.80
2017-10-14T08:23:40.713Z,28.00
2017-10-14T08:26:08.261Z,28.00
2017-10-14T08:28:35.871Z,28.20
2017-10-14T08:31:04.195Z,29.20
2017-10-14T08:33:31.686Z,29.20
2017-10-14T08:35:59.190Z,28.70
2017-10-14T08:38:26.742Z,29.10
2017-10-14T08:40:54.280Z,29.20
2017-10-14T08:43:21.929Z,29.70
2017-10-14T08:45:50.188Z,28.90
2017-10-14T08:48:17.726Z,28.90
2017-10-14T08:50:45.226Z,29.40
2017-10-14T08:53:12.758Z,29.50
2017-10-14T08:55:40.265Z,29.70
2017-10-14T08:58:07.802Z,29.60
2017-10-14T09:00:36.478Z,29.30
2017-10-14T09:03:04.820Z,29.80
2017-10-14T09:05:32.319Z,29.70
2017-10-14T09:07:59.834Z,29.80
2017-10-14T09:10:27.373Z,29.00
2017-10-14T09:12:55.635Z,29.70
2017-10-14T09:15:23.171Z,29.70
2017-10-14T09:17:50.684Z,30.00
2017-10-14T09:20:18.227Z,29.20
2017-10-14T09:22:45.742Z,29.10
2017-10-14T09:25:13.262Z,28.60
2017-10-14T09:27:40.794Z,28.40
2017-10-14T09:30:09.158Z,29.00
2017-10-14T09:32:36.657Z,29.00
2017-10-14T09:35:04.922Z,28.70
2017-10-14T09:37:32.598Z,28.70
2017-10-14T09:40:00.895Z,27.90
2017-10-14T09:42:28.466Z,27.90
2017-10-14T09:44:55.962Z,28.60
2017-10-14T09:47:24.263Z,27.50
2017-10-14T09:49:51.774Z,27.40
2017-10-14T09:52:19.301Z,27.20
2017-10-14T09:54:46.795Z,27.40
2017-10-14T09:57:14.349Z,26.90
2017-10-14T09:59:41.846Z,27.10
2017-10-14T10:02:09.391Z,27.60
2017-10-14T10:04:36.897Z,27.70
2017-10-14T10:07:04.398Z,28.00
2017-10-14T10:09:31.930Z,28.00
2017-10-14T10:11:59.438Z,28.40
2017-10-14T10:14:26.984Z,28.40
2017-10-14T10:16:54.483Z,28.20
2017-10-14T10:19:22.026Z,27.80
2017-10-14T10:21:49.645Z,27.60
2017-10-14T10:24:17.210Z,27.90
2017-10-14T10:26:44.770Z,28.10
2017-10-14T10:29:12.298Z,28.60
2017-10-14T10:31:39.790Z,28.70
2017-10-14T10:34:07.426Z,29.10
2017-10-14T10:36:34.915Z,29.40
2017-10-14T10:39:02.406Z,29.30
2017-10-14T10:41:29.929Z,29.20
2017-10-14T10:43:58.200Z,28.70
2017-10-14T10:46:26.508Z,28.70
2017-10-14T10:48:54.774Z,28.30
2017-10-14T10:51:22.297Z,28.30
2017-10-14T10:53:49.808Z,28.00
2017-10-14T10:56:17.354Z,26.80
2017-10-14T10:58:44.891Z,25.60
2017-10-14T11:01:12.434Z,24.80
2017-10-14T11:03:39.997Z,24.10
2017-10-14T11:06:07.504Z,23.40
2017-10-14T11:08:35.803Z,22.50
2017-10-14T11:11:03.300Z,22.50
2017-10-14T11:13:30.831Z,22.20
2017-10-14T11:15:59.107Z,22.10
2017-10-14T11:18:26.659Z,22.00
2017-10-14T11:20:54.162Z,22.00
2017-10-14T11:23:21.678Z,21.90
2017-10-14T11:25:49.213Z,22.00
2017-10-14T11:28:16.722Z,22.10
2017-10-14T11:30:44.254Z,22.10
2017-10-14T11:33:11.775Z,22.20
2017-10-14T11:35:39.330Z,22.20
2017-10-14T11:38:06.853Z,22.30
2017-10-14T11:40:34.451Z,22.30
2017-10-14T11:43:01.958Z,22.30
2017-10-14T11:45:29.471Z,22.40
2017-10-14T11:47:57.006Z,22.40
2017-10-14T11:50:24.498Z,22.40
2017-10-14T11:52:52.047Z,22.30
2017-10-14T11:55:19.557Z,22.30
2017-10-14T11:57:47.116Z,22.30
2017-10-14T12:00:14.614Z,22.20
2017-10-14T12:02:42.888Z,22.10
2017-10-14T12:05:10.414Z,22.10
2017-10-14T12:07:37.919Z,22.10
2017-10-14T12:10:05.461Z,22.10
2017-10-14T12:12:32.963Z,22.00
2017-10-14T12:15:00.489Z,21.90
2017-10-14T12:17:28.008Z,21.90
2017-10-14T12:19:55.570Z,22.00
2017-10-14T12:22:23.076Z,22.00
2017-10-14T12:24:50.597Z,22.00
2017-10-14T12:27:18.137Z,22.00
2017-10-14T12:29:45.633Z,22.00
2017-10-14T12:32:13.171Z,22.10
2017-10-14T12:34:40.661Z,22.10
2017-10-14T12:37:08.206Z,22.20
2017-10-14T12:39:36.486Z,22.30
2017-10-14T12:42:04.283Z,22.30
2017-10-14T12:44:31.789Z,22.30
2017-10-14T12:46:59.290Z,22.30
2017-10-14T12:49:26.814Z,22.30
2017-10-14T12:51:54.307Z,22.20
2017-10-14T12:54:21.863Z,22.30
2017-10-14T12:56:49.355Z,22.40
2017-10-14T12:59:16.905Z,22.40
2017-10-14T13:01:44.399Z,22.40
2017-10-14T13:04:11.966Z,22.30
2017-10-14T13:06:39.465Z,22.40
2017-10-14T13:09:06.971Z,22.40
2017-10-14T13:11:34.511Z,22.40
2017-10-14T13:14:02.003Z,22.40
2017-10-14T13:16:30.329Z,22.40
2017-10-14T13:18:57.822Z,22.30
2017-10-14T13:21:25.379Z,22.40
2017-10-14T13:23:52.881Z,22.50
2017-10-14T13:26:20.395Z,22.50
2017-10-14T13:28:47.975Z,22.50
2017-10-14T13:31:15.501Z,22.50
2017-10-14T13:33:43.988Z,22.60
2017-10-14T13:36:11.487Z,22.60
2017-10-14T13:38:39.808Z,22.50
2017-10-14T13:41:07.319Z,22.50
2017-10-14T13:43:35.744Z,22.50
2017-10-14T13:46:04.047Z,22.40
2017-10-14T13:48:31.549Z,22.40
2017-10-14T13:50:59.099Z,22.40
2017-10-14T13:53:26.604Z,22.40
2017-10-14T13:55:54.146Z,22.40
2017-10-14T13:58:21.651Z,22.30
2017-10-14T14:00:49.206Z,22.50
2017-10-14T14:03:16.719Z,22.40
2017-10-14T14:05:44.991Z,22.50
2017-10-14T14:08:12.562Z,22.50
2017-10-14T14:10:40.197Z,22.50
2017-10-14T14:13:08.575Z,22.40
2017-10-14T14:15:36.086Z,22.40
2017-10-14T14:18:03.615Z,22.30
2017-10-14T14:20:31.119Z,22.30
2017-10-14T14:22:58.666Z,22.30
2017-10-14T14:25:26.187Z,22.30
2017-10-14T14:27:53.686Z,22.30
2017-10-14T14:30:21.239Z,22.20
2017-10-14T14:32:48.760Z,22.20
2017-10-14T14:35:16.302Z,22.20
2017-10-14T14:37:44.578Z,22.30
2017-10-14T14:40:12.130Z,22.30
2017-10-14T14:42:39.643Z,22.30
2017-10-14T14:45:07.141Z,22.20
2017-10-14T14:47:34.685Z,22.20
2017-10-14T14:50:02.197Z,22.20
2017-10-14T14:52:29.773Z,22.20
2017-10-14T14:54:57.335Z,22.20
2017-10-14T14:57:24.881Z,22.20
2017-10-14T14:59:52.403Z,22.10
2017-10-14T15:02:20.000Z,22.10
2017-10-14T15:04:47.519Z,22.10
2017-10-14T15:07:15.026Z,22.10
2017-10-14T15:09:42.806Z,22.00
2017-10-14T15:12:10.294Z,22.00
2017-10-14T15:14:38.615Z,21.90
2017-10-14T15:17:06.128Z,21.80
2017-10-14T15:19:33.666Z,21.80
2017-10-14T15:22:01.162Z,21.80
2017-10-14T15:24:28.788Z,21.80
2017-10-14T15:26:56.289Z,21.70
2017-10-14T15:29:23.782Z,21.70
2017-10-14T15:31:51.311Z,21.70
2017-10-14T15:34:18.834Z,21.60
2017-10-14T15:36:46.357Z,21.50
2017-10-14T15:39:13.892Z,21.40
2017-10-14T15:41:41.434Z,21.30
2017-10-14T15:44:08.937Z,21.20
2017-10-14T15:46:36.479Z,21.10
2017-10-14T15:49:03.994Z,21.00
2017-10-14T15:51:32.317Z,21.00
2017-10-14T15:53:59.823Z,21.00
2017-10-14T15:56:27.353Z,21.00
2017-10-14T15:58:54.958Z,20.90
2017-10-14T16:01:22.461Z,20.90
2017-10-14T16:03:50.070Z,20.80
2017-10-14T16:06:17.571Z,20.70
2017-10-14T16:08:45.118Z,20.60
2017-10-14T16:11:12.619Z,20.50
2017-10-14T16:13:40.196Z,20.40
2017-10-14T16:16:07.712Z,20.30
2017-10-14T16:18:35.217Z,20.20
2017-10-14T16:21:02.746Z,20.20
2017-10-14T16:23:31.018Z,19.90
2017-10-14T16:25:58.869Z,19.90
2017-10-14T16:28:26.395Z,19.80
2017-10-14T16:30:53.942Z,19.60
2017-10-14T16:33:21.450Z,19.50
2017-10-14T16:35:49.683Z,19.40
2017-10-14T16:38:17.275Z,19.30
2017-10-14T16:40:47.692Z,19.20
2017-10-14T16:43:15.223Z,19.20
2017-10-14T16:45:42.778Z,19.10
2017-10-14T16:48:10.296Z,19.00
2017-10-14T16:50:37.801Z,18.90
2017-10-14T16:53:05.342Z,18.80
2017-10-14T16:55:33.303Z,18.70
2017-10-14T16:58:00.845Z,18.60
2017-10-14T17:00:28.378Z,18.40
2017-10-14T17:02:55.938Z,18.30
2017-10-14T17:05:23.463Z,18.30
2017-10-14T17:07:50.986Z,18.20
2017-10-14T17:10:18.530Z,18.20
2017-10-14T17:12:46.048Z,18.20
2017-10-14T17:15:13.601Z,18.10
2017-10-14T17:17:41.113Z,18.00
2017-10-14T17:20:08.646Z,18.00
2017-10-14T17:22:36.155Z,17.80
2017-10-14T17:25:04.466Z,17.60
2017-10-14T17:27:31.971Z,17.60
2017-10-14T17:29:59.525Z,17.60
2017-10-14T17:32:27.025Z,17.60
2017-10-14T17:34:54.581Z,17.70
2017-10-14T17:37:22.122Z,17.60
2017-10-14T17:39:49.625Z,17.50
2017-10-14T17:42:17.295Z,17.30
2017-10-14T17:44:44.813Z,17.10
2017-10-14T17:47:12.393Z,17.00
2017-10-14T17:49:39.917Z,16.80
2017-10-14T17:52:07.561Z,16.70
2017-10-14T17:54:35.066Z,16.60
2017-10-14T17:57:02.616Z,16.40
2017-10-14T17:59:30.145Z,16.40
2017-10-14T18:01:57.716Z,16.40
2017-10-14T18:04:25.269Z,16.30
2017-10-14T18:06:52.781Z,16.20
2017-10-14T18:09:20.468Z,16.20
2017-10-14T18:11:47.987Z,16.20
2017-10-14T18:14:15.543Z,16.20
2017-10-14T18:16:43.041Z,16.20
2017-10-14T18:19:10.577Z,16.20
2017-10-14T18:21:38.083Z,16.20
2017-10-14T18:24:05.622Z,16.10
2017-10-14T18:26:33.128Z,16.00
2017-10-14T18:29:01.096Z,15.90
2017-10-14T18:31:28.624Z,16.00
2017-10-14T18:33:56.918Z,15.90
2017-10-14T18:36:24.426Z,15.80
2017-10-14T18:38:51.999Z,15.90
2017-10-14T18:41:19.678Z,15.90
2017-10-14T18:43:48.046Z,15.80
2017-10-14T18:46:15.572Z,15.80
2017-10-14T18:48:43.106Z,15.80
2017-10-14T18:51:10.612Z,15.80
2017-10-14T18:53:38.697Z,15.70
2017-10-14T18:56:07.098Z,15.60
2017-10-14T18:58:35.415Z,15.40
2017-10-14T19:01:02.974Z,15.40
2017-10-14T19:03:31.247Z,15.30
2017-10-14T19:05:59.558Z,15.30
2017-10-14T19:08:29.784Z,15.30
2017-10-14T19:10:58.091Z,15.30
2017-10-14T19:13:25.593Z,15.30
2017-10-14T19:15:53.163Z,15.30
2017-10-14T19:18:21.506Z,15.20
2017-10-14T19:20:49.047Z,15.20
2017-10-14T19:23:16.554Z,15.20
2017-10-14T19:25:44.108Z,15.20
2017-10-14T19:28:11.654Z,15.20
2017-10-14T19:30:39.184Z,15.10
2017-10-14T19:33:06.726Z,15.10
2017-10-14T19:35:35.014Z,15.00
2017-10-14T19:38:02.563Z,15.00
2017-10-14T19:40:30.097Z,14.90
2017-10-14T19:42:57.659Z,14.80
2017-10-14T19:45:25.181Z,14.70
2017-10-14T19:47:52.842Z,14.70
2017-10-14T19:50:20.541Z,14.60
2017-10-14T19:52:48.063Z,14.50
2017-10-14T19:55:15.606Z,14.50
2017-10-14T19:57:43.906Z,14.20
2017-10-14T20:00:12.222Z,14.20
2017-10-14T20:02:39.729Z,14.20
2017-10-14T20:05:07.289Z,14.20
2017-10-14T20:07:34.965Z,14.10
2017-10-14T20:10:02.514Z,14.10
2017-10-14T20:12:30.934Z,14.10
2017-10-14T20:14:58.824Z,14.00
2017-10-14T20:17:26.375Z,13.90
2017-10-14T20:19:53.914Z,13.80
2017-10-14T20:22:21.469Z,13.80
2017-10-14T20:24:48.976Z,13.70
2017-10-14T20:27:16.620Z,13.70
2017-10-14T20:29:44.248Z,13.70
2017-10-14T20:32:11.876Z,13.70
2017-10-14T20:34:39.398Z,13.60
2017-10-14T20:37:06.999Z,13.60
2017-10-14T20:39:35.418Z,13.60
2017-10-14T20:42:02.922Z,13.50
2017-10-14T20:44:30.505Z,13.60
2017-10-14T20:46:58.102Z,13.60
2017-10-14T20:49:25.634Z,13.60
2017-10-14T20:51:53.139Z,13.50
2017-10-14T20:54:20.674Z,13.50
2017-10-14T20:56:48.174Z,13.50
2017-10-14T20:59:15.713Z,13.40
2017-10-14T21:01:43.226Z,13.40
2017-10-14T21:04:10.778Z,13.30
2017-10-14T21:06:38.281Z,13.30
2017-10-14T21:09:05.783Z,13.20
2017-10-14T21:11:33.353Z,13.20
2017-10-14T21:14:00.878Z,13.10
2017-10-14T21:16:28.471Z,13.10
2017-10-14T21:18:56.047Z,13.10
2017-10-14T21:21:23.577Z,13.10
2017-10-14T21:23:51.183Z,13.20
2017-10-14T21:26:18.803Z,13.20
2017-10-14T21:28:46.568Z,13.20
2017-10-14T21:31:14.104Z,13.20
2017-10-14T21:33:41.694Z,13.20
2017-10-14T21:36:09.220Z,13.10
2017-10-14T21:38:36.799Z,13.10
2017-10-14T21:41:04.354Z,13.00
2017-10-14T21:43:31.892Z,13.00
2017-10-14T21:46:00.191Z,12.90
2017-10-14T21:48:27.833Z,12.90
2017-10-14T21:50:55.402Z,12.90
2017-10-14T21:53:22.958Z,12.90
2017-10-14T21:55:50.495Z,12.90
2017-10-14T21:58:18.030Z,13.00
2017-10-14T22:00:46.460Z,13.10
2017-10-14T22:03:14.026Z,13.10
2017-10-14T22:05:41.575Z,13.00
2017-10-14T22:08:09.868Z,12.80
2017-10-14T22:10:38.189Z,12.70
2017-10-14T22:13:05.702Z,12.70
2017-10-14T22:15:33.257Z,12.70
2017-10-14T22:18:00.779Z,12.70
2017-10-14T22:20:28.375Z,12.70
2017-10-14T22:22:55.902Z,12.60
2017-10-14T22:25:23.463Z,12.70
2017-10-14T22:27:51.005Z,12.70
2017-10-14T22:30:18.549Z,12.80
2017-10-14T22:32:46.170Z,12.90
2017-10-14T22:35:13.692Z,12.90
2017-10-14T22:37:41.242Z,12.90
2017-10-14T22:40:09.538Z,13.00
2017-10-14T22:42:37.048Z,13.00
2017-10-14T22:45:04.652Z,13.20
2017-10-14T22:47:32.156Z,13.30
2017-10-14T22:50:00.483Z,13.10
2017-10-14T22:52:28.026Z,13.10
2017-10-14T22:54:55.630Z,13.10
2017-10-14T22:57:23.156Z,13.10
2017-10-14T22:59:51.461Z,12.90
2017-10-14T23:02:19.000Z,12.90
2017-10-14T23:04:46.554Z,12.90
2017-10-14T23:07:14.065Z,12.90
2017-10-14T23:09:42.342Z,12.70
2017-10-14T23:12:09.879Z,12.70
2017-10-14T23:14:37.405Z,12.70
2017-10-14T23:17:05.715Z,12.50
2017-10-14T23:19:33.219Z,12.50
2017-10-14T23:22:00.771Z,12.50
2017-10-14T23:24:28.295Z,12.50
2017-10-14T23:26:55.839Z,12.50
2017-10-14T23:29:23.347Z,12.50
2017-10-14T23:31:50.918Z,12.50
2017-10-14T23:34:18.431Z,12.50
2017-10-14T23:36:45.941Z,12.50
2017-10-14T23:39:13.478Z,12.50
2017-10-14T23:41:40.993Z,12.50
2017-10-14T23:44:09.311Z,12.70
2017-10-14T23:46:36.826Z,12.70
2017-10-14T23:49:04.363Z,12.70
2017-10-14T23:51:31.868Z,12.70
2017-10-14T23:53:59.429Z,12.70
2017-10-14T23:56:26.945Z,12.60
2017-10-14T23:58:54.512Z,12.70
